sensor_id;sensor_type;location;lat;lon;timestamp;P1;durP1;ratioP1;P2;durP2;ratioP2
15573;SDS011;7888;46.748;8.102;2024-03-23T00:52:47;0.50;;;0.50;;
15573;SDS011;7888;46.748;8.102;2024-03-23T00:55:12;0.63;;;0.47;;
15573;SDS011;7888;46.748;8.102;2024-03-23T00:57:39;0.50;;;0.43;;
15573;SDS011;7888;46.748;8.102;2024-03-23T01:00:05;1.43;;;0.53;;
15573;SDS011;7888;46.748;8.102;2024-03-23T01:02:31;2.03;;;0.87;;
15573;SDS011;7888;46.748;8.102;2024-03-23T01:04:58;0.77;;;0.67;;
15573;SDS011;7888;46.748;8.102;2024-03-23T01:07:23;2.30;;;0.90;;
15573;SDS011;7888;46.748;8.102;2024-03-23T01:09:49;1.10;;;0.80;;
15573;SDS011;7888;46.748;8.102;2024-03-23T01:12:17;1.40;;;0.90;;
15573;SDS011;7888;46.748;8.102;2024-03-23T01:14:42;1.63;;;0.83;;
15573;SDS011;7888;46.748;8.102;2024-03-23T01:17:08;1.23;;;0.90;;
15573;SDS011;7888;46.748;8.102;2024-03-23T01:19:34;0.70;;;0.70;;
15573;SDS011;7888;46.748;8.102;2024-03-23T01:21:59;1.20;;;0.70;;
15573;SDS011;7888;46.748;8.102;2024-03-23T01:24:25;0.70;;;0.70;;
15573;SDS011;7888;46.748;8.102;2024-03-23T01:26:51;2.30;;;0.97;;
15573;SDS011;7888;46.748;8.102;2024-03-23T01:29:17;1.40;;;0.90;;
15573;SDS011;7888;46.748;8.102;2024-03-23T01:31:42;0.87;;;0.50;;
15573;SDS011;7888;46.748;8.102;2024-03-23T01:34:08;0.83;;;0.70;;
15573;SDS011;7888;46.748;8.102;2024-03-23T01:36:33;1.00;;;0.80;;
15573;SDS011;7888;46.748;8.102;2024-03-23T01:38:59;2.67;;;0.70;;
15573;SDS011;7888;46.748;8.102;2024-03-23T01:41:25;1.00;;;0.50;;
15573;SDS011;7888;46.748;8.102;2024-03-23T01:43:51;0.80;;;0.60;;
15573;SDS011;7888;46.748;8.102;2024-03-23T01:46:17;0.70;;;0.50;;
15573;SDS011;7888;46.748;8.102;2024-03-23T01:48:43;1.20;;;0.63;;
15573;SDS011;7888;46.748;8.102;2024-03-23T01:51:10;1.90;;;0.50;;
15573;SDS011;7888;46.748;8.102;2024-03-23T01:53:38;1.17;;;0.70;;
15573;SDS011;7888;46.748;8.102;2024-03-23T01:56:03;1.13;;;0.50;;
15573;SDS011;7888;46.748;8.102;2024-03-23T01:58:30;2.27;;;0.60;;
15573;SDS011;7888;46.748;8.102;2024-03-23T02:00:57;1.43;;;0.50;;
15573;SDS011;7888;46.748;8.102;2024-03-23T02:03:24;0.83;;;0.57;;
15573;SDS011;7888;46.748;8.102;2024-03-23T02:05:51;0.73;;;0.70;;
15573;SDS011;7888;46.748;8.102;2024-03-23T02:08:20;0.63;;;0.63;;
15573;SDS011;7888;46.748;8.102;2024-03-23T02:10:47;1.23;;;0.60;;
15573;SDS011;7888;46.748;8.102;2024-03-23T02:13:15;0.50;;;0.40;;
15573;SDS011;7888;46.748;8.102;2024-03-23T02:15:42;0.90;;;0.63;;
15573;SDS011;7888;46.748;8.102;2024-03-23T02:18:08;0.50;;;0.50;;
15573;SDS011;7888;46.748;8.102;2024-03-23T02:20:37;0.70;;;0.50;;
15573;SDS011;7888;46.748;8.102;2024-03-23T02:23:04;1.40;;;0.60;;
15573;SDS011;7888;46.748;8.102;2024-03-23T02:25:33;0.70;;;0.60;;
15573;SDS011;7888;46.748;8.102;2024-03-23T02:27:59;1.33;;;0.50;;
15573;SDS011;7888;46.748;8.102;2024-03-23T02:30:25;0.97;;;0.50;;
15573;SDS011;7888;46.748;8.102;2024-03-23T02:32:51;0.50;;;0.43;;
15573;SDS011;7888;46.748;8.102;2024-03-23T02:35:17;0.60;;;0.53;;
15573;SDS011;7888;46.748;8.102;2024-03-23T02:37:43;1.20;;;0.60;;
15573;SDS011;7888;46.748;8.102;2024-03-23T02:40:09;2.03;;;0.57;;
15573;SDS011;7888;46.748;8.102;2024-03-23T02:42:34;0.77;;;0.70;;
15573;SDS011;7888;46.748;8.102;2024-03-23T02:45:00;1.40;;;0.50;;
15573;SDS011;7888;46.748;8.102;2024-03-23T02:47:26;2.20;;;0.73;;
15573;SDS011;7888;46.748;8.102;2024-03-23T02:49:51;0.77;;;0.63;;
15573;SDS011;7888;46.748;8.102;2024-03-23T02:52:17;1.50;;;0.63;;
15573;SDS011;7888;46.748;8.102;2024-03-23T02:54:43;0.67;;;0.50;;
15573;SDS011;7888;46.748;8.102;2024-03-23T02:57:10;0.83;;;0.60;;
15573;SDS011;7888;46.748;8.102;2024-03-23T02:59:36;0.80;;;0.50;;
15573;SDS011;7888;46.748;8.102;2024-03-23T03:02:02;1.23;;;0.60;;
15573;SDS011;7888;46.748;8.102;2024-03-23T03:04:29;1.17;;;0.60;;
15573;SDS011;7888;46.748;8.102;2024-03-23T03:06:56;1.33;;;0.60;;
15573;SDS011;7888;46.748;8.102;2024-03-23T03:09:22;0.47;;;0.47;;
15573;SDS011;7888;46.748;8.102;2024-03-23T03:11:47;1.30;;;0.63;;
15573;SDS011;7888;46.748;8.102;2024-03-23T03:14:13;0.57;;;0.50;;
15573;SDS011;7888;46.748;8.102;2024-03-23T03:16:39;0.83;;;0.50;;
15573;SDS011;7888;46.748;8.102;2024-03-23T03:19:04;0.50;;;0.50;;
15573;SDS011;7888;46.748;8.102;2024-03-23T03:21:31;1.50;;;0.40;;
15573;SDS011;7888;46.748;8.102;2024-03-23T03:23:57;0.93;;;0.50;;
15573;SDS011;7888;46.748;8.102;2024-03-23T03:26:23;0.60;;;0.40;;
15573;SDS011;7888;46.748;8.102;2024-03-23T03:28:50;0.60;;;0.57;;
15573;SDS011;7888;46.748;8.102;2024-03-23T03:31:16;1.17;;;0.50;;
15573;SDS011;7888;46.748;8.102;2024-03-23T03:33:42;1.07;;;0.57;;
15573;SDS011;7888;46.748;8.102;2024-03-23T03:36:08;0.50;;;0.50;;
15573;SDS011;7888;46.748;8.102;2024-03-23T03:38:34;1.00;;;0.77;;
15573;SDS011;7888;46.748;8.102;2024-03-23T03:41:00;1.83;;;0.60;;
15573;SDS011;7888;46.748;8.102;2024-03-23T03:43:31;0.60;;;0.60;;
15573;SDS011;7888;46.748;8.102;2024-03-23T03:45:57;0.53;;;0.50;;
15573;SDS011;7888;46.748;8.102;2024-03-23T03:48:24;0.57;;;0.50;;
15573;SDS011;7888;46.748;8.102;2024-03-23T03:50:50;0.63;;;0.53;;
15573;SDS011;7888;46.748;8.102;2024-03-23T03:53:17;1.03;;;0.60;;
15573;SDS011;7888;46.748;8.102;2024-03-23T03:55:43;1.57;;;0.50;;
15573;SDS011;7888;46.748;8.102;2024-03-23T03:58:09;0.60;;;0.50;;
15573;SDS011;7888;46.748;8.102;2024-03-23T04:00:34;0.60;;;0.50;;
15573;SDS011;7888;46.748;8.102;2024-03-23T04:03:00;0.83;;;0.50;;
15573;SDS011;7888;46.748;8.102;2024-03-23T04:05:26;0.60;;;0.50;;
15573;SDS011;7888;46.748;8.102;2024-03-23T04:07:52;0.60;;;0.50;;
15573;SDS011;7888;46.748;8.102;2024-03-23T04:10:19;0.80;;;0.60;;
15573;SDS011;7888;46.748;8.102;2024-03-23T04:12:45;0.53;;;0.50;;
15573;SDS011;7888;46.748;8.102;2024-03-23T04:15:12;1.27;;;0.83;;
15573;SDS011;7888;46.748;8.102;2024-03-23T04:17:38;0.67;;;0.67;;
15573;SDS011;7888;46.748;8.102;2024-03-23T04:20:06;1.00;;;0.70;;
15573;SDS011;7888;46.748;8.102;2024-03-23T04:22:36;0.73;;;0.57;;
15573;SDS011;7888;46.748;8.102;2024-03-23T04:25:02;1.53;;;0.70;;
15573;SDS011;7888;46.748;8.102;2024-03-23T04:27:32;0.67;;;0.57;;
15573;SDS011;7888;46.748;8.102;2024-03-23T04:29:58;1.03;;;0.60;;
15573;SDS011;7888;46.748;8.102;2024-03-23T04:32:26;1.80;;;0.80;;
15573;SDS011;7888;46.748;8.102;2024-03-23T04:34:53;1.57;;;1.00;;
15573;SDS011;7888;46.748;8.102;2024-03-23T04:37:19;0.80;;;0.67;;
15573;SDS011;7888;46.748;8.102;2024-03-23T04:39:46;1.73;;;0.60;;
15573;SDS011;7888;46.748;8.102;2024-03-23T04:42:14;0.87;;;0.60;;
15573;SDS011;7888;46.748;8.102;2024-03-23T04:44:41;1.23;;;0.90;;
15573;SDS011;7888;46.748;8.102;2024-03-23T04:47:07;0.93;;;0.80;;
15573;SDS011;7888;46.748;8.102;2024-03-23T04:49:32;1.00;;;0.50;;
15573;SDS011;7888;46.748;8.102;2024-03-23T04:51:58;0.87;;;0.60;;
15573;SDS011;7888;46.748;8.102;2024-03-23T04:54:24;0.80;;;0.70;;
15573;SDS011;7888;46.748;8.102;2024-03-23T04:56:49;0.73;;;0.70;;
15573;SDS011;7888;46.748;8.102;2024-03-23T04:59:15;0.67;;;0.60;;
15573;SDS011;7888;46.748;8.102;2024-03-23T05:01:41;0.50;;;0.50;;
15573;SDS011;7888;46.748;8.102;2024-03-23T05:04:08;1.43;;;0.70;;
15573;SDS011;7888;46.748;8.102;2024-03-23T05:06:34;1.50;;;0.70;;
15573;SDS011;7888;46.748;8.102;2024-03-23T05:09:00;1.80;;;0.80;;
15573;SDS011;7888;46.748;8.102;2024-03-23T05:11:35;1.50;;;0.80;;
15573;SDS011;7888;46.748;8.102;2024-03-23T05:14:01;0.60;;;0.50;;
15573;SDS011;7888;46.748;8.102;2024-03-23T05:16:28;0.63;;;0.60;;
15573;SDS011;7888;46.748;8.102;2024-03-23T05:18:53;0.80;;;0.60;;
15573;SDS011;7888;46.748;8.102;2024-03-23T05:21:19;0.87;;;0.60;;
15573;SDS011;7888;46.748;8.102;2024-03-23T05:23:45;1.03;;;0.90;;
15573;SDS011;7888;46.748;8.102;2024-03-23T05:26:11;2.53;;;0.73;;
15573;SDS011;7888;46.748;8.102;2024-03-23T05:28:36;1.83;;;0.73;;
15573;SDS011;7888;46.748;8.102;2024-03-23T05:31:02;0.87;;;0.70;;
15573;SDS011;7888;46.748;8.102;2024-03-23T05:33:28;1.47;;;0.63;;
15573;SDS011;7888;46.748;8.102;2024-03-23T05:35:57;1.10;;;0.90;;
15573;SDS011;7888;46.748;8.102;2024-03-23T05:38:27;2.00;;;1.60;;
15573;SDS011;7888;46.748;8.102;2024-03-23T05:40:56;1.30;;;1.00;;
15573;SDS011;7888;46.748;8.102;2024-03-23T05:43:23;2.20;;;0.90;;
15573;SDS011;7888;46.748;8.102;2024-03-23T05:45:59;2.73;;;1.10;;
15573;SDS011;7888;46.748;8.102;2024-03-23T05:48:30;0.83;;;0.80;;
15573;SDS011;7888;46.748;8.102;2024-03-23T05:50:56;1.03;;;0.90;;
15573;SDS011;7888;46.748;8.102;2024-03-23T05:53:22;1.40;;;0.83;;
15573;SDS011;7888;46.748;8.102;2024-03-23T05:55:49;0.70;;;0.70;;
15573;SDS011;7888;46.748;8.102;2024-03-23T05:58:16;1.93;;;1.40;;
15573;SDS011;7888;46.748;8.102;2024-03-23T06:00:43;1.30;;;1.20;;
15573;SDS011;7888;46.748;8.102;2024-03-23T06:03:09;5.27;;;3.67;;
15573;SDS011;7888;46.748;8.102;2024-03-23T06:05:39;5.33;;;3.17;;
15573;SDS011;7888;46.748;8.102;2024-03-23T06:08:05;3.30;;;1.43;;
15573;SDS011;7888;46.748;8.102;2024-03-23T06:10:34;5.90;;;1.70;;
15573;SDS011;7888;46.748;8.102;2024-03-23T06:13:00;3.50;;;2.07;;
15573;SDS011;7888;46.748;8.102;2024-03-23T06:15:26;3.37;;;2.57;;
15573;SDS011;7888;46.748;8.102;2024-03-23T06:17:52;7.23;;;5.03;;
15573;SDS011;7888;46.748;8.102;2024-03-23T06:20:18;5.57;;;4.43;;
15573;SDS011;7888;46.748;8.102;2024-03-23T06:22:43;3.57;;;2.57;;
15573;SDS011;7888;46.748;8.102;2024-03-23T06:25:09;2.07;;;1.60;;
15573;SDS011;7888;46.748;8.102;2024-03-23T06:27:37;1.57;;;1.27;;
15573;SDS011;7888;46.748;8.102;2024-03-23T06:30:04;1.63;;;1.10;;
15573;SDS011;7888;46.748;8.102;2024-03-23T06:32:32;1.17;;;0.80;;
15573;SDS011;7888;46.748;8.102;2024-03-23T06:34:58;2.87;;;0.90;;
15573;SDS011;7888;46.748;8.102;2024-03-23T06:37:24;0.80;;;0.70;;
15573;SDS011;7888;46.748;8.102;2024-03-23T06:39:49;2.43;;;0.80;;
15573;SDS011;7888;46.748;8.102;2024-03-23T06:42:15;1.33;;;0.90;;
15573;SDS011;7888;46.748;8.102;2024-03-23T06:44:41;1.43;;;0.93;;
15573;SDS011;7888;46.748;8.102;2024-03-23T06:47:06;0.83;;;0.70;;
15573;SDS011;7888;46.748;8.102;2024-03-23T06:49:32;1.00;;;0.70;;
15573;SDS011;7888;46.748;8.102;2024-03-23T06:51:58;0.83;;;0.60;;
15573;SDS011;7888;46.748;8.102;2024-03-23T06:54:24;1.30;;;0.80;;
15573;SDS011;7888;46.748;8.102;2024-03-23T06:56:50;2.57;;;0.97;;
15573;SDS011;7888;46.748;8.102;2024-03-23T06:59:16;0.90;;;0.70;;
15573;SDS011;7888;46.748;8.102;2024-03-23T07:01:42;2.00;;;0.90;;
15573;SDS011;7888;46.748;8.102;2024-03-23T07:04:08;1.40;;;0.80;;
15573;SDS011;7888;46.748;8.102;2024-03-23T07:06:34;2.17;;;0.90;;
15573;SDS011;7888;46.748;8.102;2024-03-23T07:08:59;3.00;;;1.00;;
15573;SDS011;7888;46.748;8.102;2024-03-23T07:11:25;1.53;;;0.70;;
15573;SDS011;7888;46.748;8.102;2024-03-23T07:13:52;1.83;;;0.70;;
15573;SDS011;7888;46.748;8.102;2024-03-23T07:16:21;0.87;;;0.87;;
15573;SDS011;7888;46.748;8.102;2024-03-23T07:18:47;2.03;;;0.70;;
15573;SDS011;7888;46.748;8.102;2024-03-23T07:21:15;1.90;;;0.60;;
15573;SDS011;7888;46.748;8.102;2024-03-23T07:23:43;3.13;;;1.00;;
15573;SDS011;7888;46.748;8.102;2024-03-23T07:26:10;1.93;;;0.70;;
15573;SDS011;7888;46.748;8.102;2024-03-23T07:28:36;0.90;;;0.77;;
15573;SDS011;7888;46.748;8.102;2024-03-23T07:31:10;0.80;;;0.80;;
15573;SDS011;7888;46.748;8.102;2024-03-23T07:33:41;1.53;;;1.00;;
15573;SDS011;7888;46.748;8.102;2024-03-23T07:36:10;2.73;;;0.97;;
15573;SDS011;7888;46.748;8.102;2024-03-23T07:38:35;1.07;;;0.70;;
15573;SDS011;7888;46.748;8.102;2024-03-23T07:43:34;1.37;;;1.10;;
15573;SDS011;7888;46.748;8.102;2024-03-23T07:46:01;2.07;;;1.10;;
15573;SDS011;7888;46.748;8.102;2024-03-23T07:48:28;1.27;;;1.03;;
15573;SDS011;7888;46.748;8.102;2024-03-23T07:50:58;2.00;;;1.07;;
15573;SDS011;7888;46.748;8.102;2024-03-23T07:53:45;1.07;;;0.90;;
15573;SDS011;7888;46.748;8.102;2024-03-23T07:56:12;1.30;;;0.80;;
15573;SDS011;7888;46.748;8.102;2024-03-23T07:58:44;1.40;;;1.10;;
15573;SDS011;7888;46.748;8.102;2024-03-23T08:01:11;1.57;;;1.10;;
15573;SDS011;7888;46.748;8.102;2024-03-23T08:03:39;2.47;;;1.60;;
15573;SDS011;7888;46.748;8.102;2024-03-23T08:06:14;1.97;;;1.37;;
15573;SDS011;7888;46.748;8.102;2024-03-23T08:08:43;2.57;;;1.50;;
15573;SDS011;7888;46.748;8.102;2024-03-23T08:11:10;2.83;;;1.40;;
15573;SDS011;7888;46.748;8.102;2024-03-23T08:13:38;1.20;;;1.00;;
15573;SDS011;7888;46.748;8.102;2024-03-23T08:16:06;1.27;;;1.00;;
15573;SDS011;7888;46.748;8.102;2024-03-23T08:18:33;2.20;;;0.93;;
15573;SDS011;7888;46.748;8.102;2024-03-23T08:21:00;2.03;;;0.70;;
15573;SDS011;7888;46.748;8.102;2024-03-23T08:23:28;1.20;;;0.83;;
15573;SDS011;7888;46.748;8.102;2024-03-23T08:25:58;1.00;;;0.90;;
15573;SDS011;7888;46.748;8.102;2024-03-23T08:28:29;0.93;;;0.90;;
15573;SDS011;7888;46.748;8.102;2024-03-23T08:30:55;1.93;;;0.83;;
15573;SDS011;7888;46.748;8.102;2024-03-23T08:33:22;1.47;;;1.10;;
15573;SDS011;7888;46.748;8.102;2024-03-23T08:35:57;0.87;;;0.87;;
15573;SDS011;7888;46.748;8.102;2024-03-23T08:38:28;0.80;;;0.80;;
15573;SDS011;7888;46.748;8.102;2024-03-23T08:43:25;1.97;;;1.03;;
15573;SDS011;7888;46.748;8.102;2024-03-23T08:45:51;1.50;;;0.80;;
15573;SDS011;7888;46.748;8.102;2024-03-23T08:48:21;2.63;;;1.00;;
15573;SDS011;7888;46.748;8.102;2024-03-23T08:50:47;1.77;;;0.90;;
15573;SDS011;7888;46.748;8.102;2024-03-23T08:53:33;2.07;;;1.03;;
15573;SDS011;7888;46.748;8.102;2024-03-23T08:56:00;1.80;;;1.20;;
15573;SDS011;7888;46.748;8.102;2024-03-23T08:58:27;0.87;;;0.80;;
15573;SDS011;7888;46.748;8.102;2024-03-23T09:00:55;1.27;;;1.10;;
15573;SDS011;7888;46.748;8.102;2024-03-23T09:03:25;1.40;;;0.90;;
15573;SDS011;7888;46.748;8.102;2024-03-23T09:05:51;1.00;;;0.90;;
15573;SDS011;7888;46.748;8.102;2024-03-23T09:08:18;0.83;;;0.67;;
15573;SDS011;7888;46.748;8.102;2024-03-23T09:10:44;1.17;;;0.70;;
15573;SDS011;7888;46.748;8.102;2024-03-23T09:13:10;2.30;;;0.90;;
15573;SDS011;7888;46.748;8.102;2024-03-23T09:15:36;1.53;;;1.00;;
15573;SDS011;7888;46.748;8.102;2024-03-23T09:18:10;0.83;;;0.80;;
15573;SDS011;7888;46.748;8.102;2024-03-23T09:20:36;0.80;;;0.80;;
15573;SDS011;7888;46.748;8.102;2024-03-23T09:23:01;1.37;;;1.03;;
15573;SDS011;7888;46.748;8.102;2024-03-23T09:25:27;0.77;;;0.77;;
15573;SDS011;7888;46.748;8.102;2024-03-23T09:27:53;2.13;;;0.90;;
15573;SDS011;7888;46.748;8.102;2024-03-23T09:30:19;1.80;;;0.60;;
15573;SDS011;7888;46.748;8.102;2024-03-23T09:32:45;0.73;;;0.60;;
15573;SDS011;7888;46.748;8.102;2024-03-23T09:35:11;0.70;;;0.60;;
15573;SDS011;7888;46.748;8.102;2024-03-23T09:37:40;1.27;;;0.43;;
15573;SDS011;7888;46.748;8.102;2024-03-23T09:40:09;0.60;;;0.37;;
15573;SDS011;7888;46.748;8.102;2024-03-23T09:42:36;0.30;;;0.30;;
15573;SDS011;7888;46.748;8.102;2024-03-23T09:45:02;0.30;;;0.30;;
15573;SDS011;7888;46.748;8.102;2024-03-23T09:47:34;0.30;;;0.30;;
15573;SDS011;7888;46.748;8.102;2024-03-23T09:50:00;0.37;;;0.20;;
15573;SDS011;7888;46.748;8.102;2024-03-23T09:52:29;1.00;;;0.30;;
15573;SDS011;7888;46.748;8.102;2024-03-23T09:54:56;0.40;;;0.30;;
15573;SDS011;7888;46.748;8.102;2024-03-23T09:57:22;0.33;;;0.20;;
15573;SDS011;7888;46.748;8.102;2024-03-23T09:59:47;0.67;;;0.30;;
15573;SDS011;7888;46.748;8.102;2024-03-23T10:02:13;0.77;;;0.40;;
15573;SDS011;7888;46.748;8.102;2024-03-23T10:04:42;0.33;;;0.33;;
15573;SDS011;7888;46.748;8.102;2024-03-23T10:07:14;0.20;;;0.20;;
15573;SDS011;7888;46.748;8.102;2024-03-23T10:09:43;0.30;;;0.30;;
15573;SDS011;7888;46.748;8.102;2024-03-23T10:12:10;1.03;;;0.30;;
15573;SDS011;7888;46.748;8.102;2024-03-23T10:14:41;0.30;;;0.30;;
15573;SDS011;7888;46.748;8.102;2024-03-23T10:17:20;0.30;;;0.30;;
15573;SDS011;7888;46.748;8.102;2024-03-23T10:19:49;0.30;;;0.30;;
15573;SDS011;7888;46.748;8.102;2024-03-23T10:22:18;0.20;;;0.20;;
15573;SDS011;7888;46.748;8.102;2024-03-23T10:24:46;0.30;;;0.30;;
15573;SDS011;7888;46.748;8.102;2024-03-23T10:27:16;0.30;;;0.30;;
15573;SDS011;7888;46.748;8.102;2024-03-23T10:29:47;0.30;;;0.30;;
15573;SDS011;7888;46.748;8.102;2024-03-23T10:32:15;0.20;;;0.20;;
15573;SDS011;7888;46.748;8.102;2024-03-23T10:34:42;0.70;;;0.30;;
15573;SDS011;7888;46.748;8.102;2024-03-23T10:37:10;0.20;;;0.20;;
15573;SDS011;7888;46.748;8.102;2024-03-23T10:39:37;0.10;;;0.10;;
15573;SDS011;7888;46.748;8.102;2024-03-23T10:42:05;0.10;;;0.10;;
15573;SDS011;7888;46.748;8.102;2024-03-23T10:44:33;0.30;;;0.20;;
15573;SDS011;7888;46.748;8.102;2024-03-23T10:47:00;0.10;;;0.10;;
15573;SDS011;7888;46.748;8.102;2024-03-23T10:49:34;0.17;;;0.10;;
15573;SDS011;7888;46.748;8.102;2024-03-23T10:52:04;0.20;;;0.20;;
15573;SDS011;7888;46.748;8.102;2024-03-23T10:54:31;0.20;;;0.20;;
15573;SDS011;7888;46.748;8.102;2024-03-23T10:57:17;0.10;;;0.10;;
15573;SDS011;7888;46.748;8.102;2024-03-23T10:59:51;0.20;;;0.20;;
15573;SDS011;7888;46.748;8.102;2024-03-23T11:02:19;0.10;;;0.10;;
15573;SDS011;7888;46.748;8.102;2024-03-23T11:04:46;0.20;;;0.20;;
15573;SDS011;7888;46.748;8.102;2024-03-23T11:09:49;0.20;;;0.20;;
15573;SDS011;7888;46.748;8.102;2024-03-23T11:14:55;0.10;;;0.10;;
15573;SDS011;7888;46.748;8.102;2024-03-23T11:17:37;0.10;;;0.10;;
15573;SDS011;7888;46.748;8.102;2024-03-23T11:20:04;0.10;;;0.10;;
15573;SDS011;7888;46.748;8.102;2024-03-23T11:22:41;0.20;;;0.20;;
15573;SDS011;7888;46.748;8.102;2024-03-23T11:27:38;1.33;;;0.30;;
15573;SDS011;7888;46.748;8.102;2024-03-23T11:32:57;0.47;;;0.30;;
15573;SDS011;7888;46.748;8.102;2024-03-23T11:35:29;0.20;;;0.20;;
15573;SDS011;7888;46.748;8.102;2024-03-23T11:40:38;0.30;;;0.30;;
15573;SDS011;7888;46.748;8.102;2024-03-23T11:43:05;0.30;;;0.30;;
15573;SDS011;7888;46.748;8.102;2024-03-23T11:45:46;0.93;;;0.40;;
15573;SDS011;7888;46.748;8.102;2024-03-23T11:48:18;1.50;;;0.40;;
15573;SDS011;7888;46.748;8.102;2024-03-23T11:50:46;0.63;;;0.40;;
15573;SDS011;7888;46.748;8.102;2024-03-23T11:53:21;0.47;;;0.40;;
15573;SDS011;7888;46.748;8.102;2024-03-23T11:55:52;0.30;;;0.30;;
15573;SDS011;7888;46.748;8.102;2024-03-23T11:58:25;0.30;;;0.30;;
15573;SDS011;7888;46.748;8.102;2024-03-23T12:00:59;0.47;;;0.40;;
15573;SDS011;7888;46.748;8.102;2024-03-23T12:03:28;1.57;;;0.60;;
15573;SDS011;7888;46.748;8.102;2024-03-23T12:05:55;1.20;;;0.40;;
15573;SDS011;7888;46.748;8.102;2024-03-23T12:08:28;0.70;;;0.50;;
15573;SDS011;7888;46.748;8.102;2024-03-23T12:11:07;2.10;;;0.60;;
15573;SDS011;7888;46.748;8.102;2024-03-23T12:13:36;1.30;;;0.60;;
15573;SDS011;7888;46.748;8.102;2024-03-23T12:16:12;2.43;;;1.13;;
15573;SDS011;7888;46.748;8.102;2024-03-23T12:18:49;1.50;;;0.87;;
15573;SDS011;7888;46.748;8.102;2024-03-23T12:21:19;1.07;;;0.80;;
15573;SDS011;7888;46.748;8.102;2024-03-23T12:23:47;0.90;;;0.60;;
15573;SDS011;7888;46.748;8.102;2024-03-23T12:26:15;1.27;;;0.70;;
15573;SDS011;7888;46.748;8.102;2024-03-23T12:28:42;0.90;;;0.60;;
15573;SDS011;7888;46.748;8.102;2024-03-23T12:31:08;1.47;;;0.70;;
15573;SDS011;7888;46.748;8.102;2024-03-23T12:33:33;1.73;;;0.67;;
15573;SDS011;7888;46.748;8.102;2024-03-23T12:35:59;1.93;;;1.40;;
15573;SDS011;7888;46.748;8.102;2024-03-23T12:38:25;1.20;;;0.90;;
15573;SDS011;7888;46.748;8.102;2024-03-23T12:40:51;1.27;;;0.70;;
15573;SDS011;7888;46.748;8.102;2024-03-23T12:43:17;1.73;;;0.80;;
15573;SDS011;7888;46.748;8.102;2024-03-23T12:45:47;1.47;;;0.80;;
15573;SDS011;7888;46.748;8.102;2024-03-23T12:48:14;1.03;;;0.53;;
15573;SDS011;7888;46.748;8.102;2024-03-23T12:50:40;1.10;;;0.50;;
15573;SDS011;7888;46.748;8.102;2024-03-23T12:53:06;1.43;;;0.60;;
15573;SDS011;7888;46.748;8.102;2024-03-23T12:55:31;1.07;;;0.70;;
15573;SDS011;7888;46.748;8.102;2024-03-23T12:57:59;1.90;;;0.70;;
15573;SDS011;7888;46.748;8.102;2024-03-23T13:00:25;0.70;;;0.53;;
15573;SDS011;7888;46.748;8.102;2024-03-23T13:02:51;0.90;;;0.60;;
15573;SDS011;7888;46.748;8.102;2024-03-23T13:05:17;1.80;;;0.60;;
15573;SDS011;7888;46.748;8.102;2024-03-23T13:07:43;1.63;;;0.57;;
15573;SDS011;7888;46.748;8.102;2024-03-23T13:10:08;1.87;;;0.60;;
15573;SDS011;7888;46.748;8.102;2024-03-23T13:12:35;1.50;;;0.80;;
15573;SDS011;7888;46.748;8.102;2024-03-23T13:15:01;0.97;;;0.70;;
15573;SDS011;7888;46.748;8.102;2024-03-23T13:17:27;1.47;;;0.90;;
15573;SDS011;7888;46.748;8.102;2024-03-23T13:19:53;1.10;;;0.60;;
15573;SDS011;7888;46.748;8.102;2024-03-23T13:22:21;1.50;;;1.13;;
15573;SDS011;7888;46.748;8.102;2024-03-23T13:24:47;1.47;;;0.80;;
15573;SDS011;7888;46.748;8.102;2024-03-23T13:27:12;0.77;;;0.60;;
15573;SDS011;7888;46.748;8.102;2024-03-23T13:29:38;0.53;;;0.40;;
15573;SDS011;7888;46.748;8.102;2024-03-23T13:32:04;1.10;;;0.70;;
15573;SDS011;7888;46.748;8.102;2024-03-23T13:34:31;2.30;;;0.57;;
15573;SDS011;7888;46.748;8.102;2024-03-23T13:36:58;0.70;;;0.60;;
15573;SDS011;7888;46.748;8.102;2024-03-23T13:39:24;1.43;;;0.40;;
15573;SDS011;7888;46.748;8.102;2024-03-23T13:41:52;1.07;;;0.50;;
15573;SDS011;7888;46.748;8.102;2024-03-23T13:44:20;0.70;;;0.47;;
15573;SDS011;7888;46.748;8.102;2024-03-23T13:46:46;0.60;;;0.40;;
15573;SDS011;7888;46.748;8.102;2024-03-23T13:49:18;1.43;;;0.60;;
15573;SDS011;7888;46.748;8.102;2024-03-23T13:51:57;1.30;;;0.70;;
15573;SDS011;7888;46.748;8.102;2024-03-23T13:54:25;0.60;;;0.40;;
15573;SDS011;7888;46.748;8.102;2024-03-23T13:56:52;2.67;;;0.70;;
15573;SDS011;7888;46.748;8.102;2024-03-23T13:59:19;1.23;;;0.70;;
15573;SDS011;7888;46.748;8.102;2024-03-23T14:01:46;1.33;;;0.70;;
15573;SDS011;7888;46.748;8.102;2024-03-23T14:04:12;1.77;;;0.63;;
15573;SDS011;7888;46.748;8.102;2024-03-23T14:06:39;0.67;;;0.60;;
15573;SDS011;7888;46.748;8.102;2024-03-23T14:09:05;1.07;;;0.53;;
15573;SDS011;7888;46.748;8.102;2024-03-23T14:11:34;2.43;;;0.60;;
15573;SDS011;7888;46.748;8.102;2024-03-23T14:14:02;2.10;;;0.50;;
15573;SDS011;7888;46.748;8.102;2024-03-23T14:16:28;2.50;;;0.87;;
15573;SDS011;7888;46.748;8.102;2024-03-23T14:18:55;1.27;;;0.60;;
15573;SDS011;7888;46.748;8.102;2024-03-23T14:21:21;1.30;;;0.43;;
15573;SDS011;7888;46.748;8.102;2024-03-23T14:23:47;1.53;;;0.50;;
15573;SDS011;7888;46.748;8.102;2024-03-23T14:26:13;0.63;;;0.40;;
15573;SDS011;7888;46.748;8.102;2024-03-23T14:28:39;1.33;;;0.60;;
15573;SDS011;7888;46.748;8.102;2024-03-23T14:31:05;0.90;;;0.60;;
15573;SDS011;7888;46.748;8.102;2024-03-23T14:33:35;1.33;;;0.50;;
15573;SDS011;7888;46.748;8.102;2024-03-23T14:36:10;1.67;;;0.47;;
15573;SDS011;7888;46.748;8.102;2024-03-23T14:38:36;1.53;;;0.90;;
15573;SDS011;7888;46.748;8.102;2024-03-23T14:41:03;1.40;;;0.40;;
15573;SDS011;7888;46.748;8.102;2024-03-23T14:43:29;1.70;;;0.67;;
15573;SDS011;7888;46.748;8.102;2024-03-23T14:46:14;1.47;;;0.70;;
15573;SDS011;7888;46.748;8.102;2024-03-23T14:48:43;2.30;;;0.73;;
15573;SDS011;7888;46.748;8.102;2024-03-23T14:51:11;2.77;;;0.57;;
15573;SDS011;7888;46.748;8.102;2024-03-23T14:53:38;2.97;;;0.83;;
15573;SDS011;7888;46.748;8.102;2024-03-23T14:56:07;1.77;;;0.50;;
15573;SDS011;7888;46.748;8.102;2024-03-23T14:58:36;1.50;;;0.80;;
15573;SDS011;7888;46.748;8.102;2024-03-23T15:01:03;2.90;;;0.90;;
15573;SDS011;7888;46.748;8.102;2024-03-23T15:03:30;1.40;;;0.80;;
15573;SDS011;7888;46.748;8.102;2024-03-23T15:05:56;1.30;;;0.70;;
15573;SDS011;7888;46.748;8.102;2024-03-23T15:08:25;2.23;;;0.80;;
15573;SDS011;7888;46.748;8.102;2024-03-23T15:10:50;1.43;;;0.50;;
15573;SDS011;7888;46.748;8.102;2024-03-23T15:13:16;0.80;;;0.53;;
15573;SDS011;7888;46.748;8.102;2024-03-23T15:15:42;1.37;;;0.70;;
15573;SDS011;7888;46.748;8.102;2024-03-23T15:18:13;2.43;;;0.57;;
15573;SDS011;7888;46.748;8.102;2024-03-23T15:20:57;1.30;;;0.47;;
15573;SDS011;7888;46.748;8.102;2024-03-23T15:23:29;2.77;;;0.60;;
15573;SDS011;7888;46.748;8.102;2024-03-23T15:25:58;2.73;;;0.53;;
15573;SDS011;7888;46.748;8.102;2024-03-23T15:28:27;1.23;;;0.50;;
15573;SDS011;7888;46.748;8.102;2024-03-23T15:31:09;3.43;;;0.50;;
15573;SDS011;7888;46.748;8.102;2024-03-23T15:33:35;1.13;;;0.50;;
15573;SDS011;7888;46.748;8.102;2024-03-23T15:36:04;1.37;;;0.67;;
15573;SDS011;7888;46.748;8.102;2024-03-23T15:38:31;2.23;;;0.77;;
15573;SDS011;7888;46.748;8.102;2024-03-23T15:40:58;0.73;;;0.47;;
15573;SDS011;7888;46.748;8.102;2024-03-23T15:43:24;2.20;;;0.60;;
15573;SDS011;7888;46.748;8.102;2024-03-23T15:45:54;1.40;;;0.77;;
15573;SDS011;7888;46.748;8.102;2024-03-23T15:48:29;1.63;;;0.73;;
15573;SDS011;7888;46.748;8.102;2024-03-23T15:50:57;0.63;;;0.50;;
15573;SDS011;7888;46.748;8.102;2024-03-23T15:53:26;1.47;;;0.70;;
15573;SDS011;7888;46.748;8.102;2024-03-23T15:56:00;2.33;;;0.70;;
15573;SDS011;7888;46.748;8.102;2024-03-23T15:58:28;1.87;;;0.70;;
15573;SDS011;7888;46.748;8.102;2024-03-23T16:01:03;1.77;;;0.63;;
15573;SDS011;7888;46.748;8.102;2024-03-23T16:03:33;2.43;;;0.70;;
15573;SDS011;7888;46.748;8.102;2024-03-23T16:06:00;1.10;;;0.53;;
15573;SDS011;7888;46.748;8.102;2024-03-23T16:08:28;2.90;;;0.83;;
15573;SDS011;7888;46.748;8.102;2024-03-23T16:10:58;1.37;;;0.60;;
15573;SDS011;7888;46.748;8.102;2024-03-23T16:13:29;1.40;;;0.67;;